createdAt,value
2019-04-29T00:00:46.268Z,88.87
2019-04-29T00:03:20.201Z,89.02
2019-04-29T00:05:52.183Z,89.06
2019-04-29T00:08:25.130Z,89.25
2019-04-29T00:10:56.936Z,89.11
2019-04-29T00:13:27.999Z,88.72
2019-04-29T00:16:12.817Z,89.00
2019-04-29T00:19:06.707Z,88.77
2019-04-29T00:21:39.669Z,88.97
2019-04-29T00:24:11.013Z,88.50
2019-04-29T00:26:43.115Z,88.33
2019-04-29T00:29:16.081Z,88.29
2019-04-29T00:31:47.236Z,88.72
2019-04-29T00:34:18.417Z,88.43
2019-04-29T00:37:00.489Z,88.93
2019-04-29T00:39:59.459Z,88.88
2019-04-29T00:42:46.674Z,88.49
2019-04-29T00:45:19.249Z,88.87
2019-04-29T00:47:50.294Z,89.26
2019-04-29T00:50:22.608Z,89.51
2019-04-29T00:52:55.660Z,89.97
2019-04-29T00:55:28.794Z,89.82
2019-04-29T00:58:01.535Z,90.05
2019-04-29T01:00:38.108Z,90.46
2019-04-29T01:03:15.504Z,90.95
2019-04-29T01:05:48.028Z,90.66
2019-04-29T01:08:23.934Z,91.09
2019-04-29T01:10:55.027Z,91.10
2019-04-29T01:13:27.208Z,90.97
2019-04-29T01:15:58.552Z,90.96
2019-04-29T01:18:29.989Z,91.23
2019-04-29T01:21:01.841Z,91.40
2019-04-29T01:23:34.034Z,91.44
2019-04-29T01:26:17.938Z,91.17
2019-04-29T01:28:53.583Z,91.38
2019-04-29T01:31:28.818Z,91.07
2019-04-29T01:34:16.957Z,90.98
2019-04-29T01:36:48.560Z,91.06
2019-04-29T01:39:24.479Z,90.89
2019-04-29T01:42:04.041Z,91.47
2019-04-29T01:44:37.978Z,91.58
2019-04-29T01:47:11.343Z,91.62
2019-04-29T01:49:42.367Z,91.65
2019-04-29T01:52:14.637Z,91.78
2019-04-29T01:54:46.091Z,92.08
2019-04-29T01:57:18.199Z,92.32
2019-04-29T01:59:49.406Z,92.25
2019-04-29T02:02:20.478Z,92.27
2019-04-29T02:04:51.639Z,92.43
2019-04-29T02:07:23.120Z,92.55
2019-04-29T02:10:14.160Z,92.35
2019-04-29T02:12:46.737Z,92.02
2019-04-29T02:15:19.829Z,91.61
2019-04-29T02:17:51.312Z,91.76
2019-04-29T02:20:22.358Z,92.32
2019-04-29T02:23:31.335Z,92.67
2019-04-29T02:26:06.274Z,92.61
2019-04-29T02:28:37.471Z,92.42
2019-04-29T02:31:27.729Z,92.08
2019-04-29T02:34:00.381Z,91.93
2019-04-29T02:36:32.518Z,92.35
2019-04-29T02:39:33.559Z,92.55
2019-04-29T02:42:28.591Z,92.38
2019-04-29T02:45:04.537Z,91.41
2019-04-29T02:47:36.296Z,91.48
2019-04-29T02:50:07.950Z,91.18
2019-04-29T02:52:39.066Z,91.38
2019-04-29T02:55:12.127Z,91.46
2019-04-29T02:57:51.155Z,92.08
2019-04-29T03:01:01.254Z,91.93
2019-04-29T03:03:54.638Z,91.79
2019-04-29T03:06:28.238Z,91.54
2019-04-29T03:08:59.463Z,91.12
2019-04-29T03:11:31.054Z,91.67
2019-04-29T03:14:02.369Z,91.94
2019-04-29T03:16:34.649Z,91.98
2019-04-29T03:19:10.498Z,92.36
2019-04-29T03:21:51.983Z,92.67
2019-04-29T03:24:24.259Z,92.71
2019-04-29T03:26:55.602Z,92.53
2019-04-29T03:29:28.084Z,92.80
2019-04-29T03:32:01.018Z,92.94
2019-04-29T03:34:33.474Z,93.29
2019-04-29T03:37:05.824Z,92.85
2019-04-29T03:39:38.018Z,92.64
2019-04-29T03:42:09.546Z,92.66
2019-04-29T03:44:40.813Z,92.93
2019-04-29T03:47:13.127Z,93.17
2019-04-29T03:49:45.370Z,93.34
2019-04-29T03:52:27.953Z,93.38
2019-04-29T03:54:59.453Z,92.82
2019-04-29T03:57:33.522Z,92.76
2019-04-29T04:00:06.649Z,91.56
2019-04-29T04:02:56.695Z,91.55
2019-04-29T04:05:52.705Z,91.69
2019-04-29T04:09:04.965Z,92.09
2019-04-29T04:11:24.511Z,91.77
2019-04-29T04:13:57.512Z,92.15
2019-04-29T04:16:46.036Z,91.81
2019-04-29T04:19:19.656Z,91.98
2019-04-29T04:21:51.028Z,91.97
2019-04-29T04:24:22.453Z,91.95
2019-04-29T04:26:53.562Z,91.00
2019-04-29T04:29:24.720Z,91.01
2019-04-29T04:31:55.921Z,91.44
2019-04-29T04:34:27.116Z,90.87
2019-04-29T04:37:00.583Z,90.74
2019-04-29T04:39:43.275Z,90.34
2019-04-29T04:42:15.467Z,89.76
2019-04-29T04:44:51.192Z,89.43
2019-04-29T04:47:28.883Z,89.84
2019-04-29T04:50:01.966Z,90.41
2019-04-29T04:52:33.447Z,90.19
2019-04-29T04:55:04.865Z,90.10
2019-04-29T04:57:36.105Z,89.55
2019-04-29T05:00:12.090Z,89.11
2019-04-29T05:02:43.612Z,89.82
2019-04-29T05:05:16.291Z,88.92
2019-04-29T05:07:49.319Z,87.70
2019-04-29T05:10:21.097Z,88.02
2019-04-29T05:12:52.402Z,88.51
2019-04-29T05:15:25.905Z,89.05
2019-04-29T05:17:57.118Z,89.10
2019-04-29T05:20:28.601Z,88.51
2019-04-29T05:23:01.180Z,87.52
2019-04-29T05:25:34.529Z,87.99
2019-04-29T05:28:07.059Z,86.80
2019-04-29T05:30:39.991Z,86.89
2019-04-29T05:33:11.428Z,86.35
2019-04-29T05:36:01.851Z,85.89
2019-04-29T05:38:55.857Z,86.30
2019-04-29T05:41:30.082Z,86.10
2019-04-29T05:44:20.769Z,86.03
2019-04-29T05:47:06.454Z,85.47
2019-04-29T05:49:46.395Z,85.10
2019-04-29T05:52:41.121Z,84.65
2019-04-29T05:55:13.753Z,84.12
2019-04-29T05:57:48.425Z,83.03
2019-04-29T06:00:23.291Z,82.79
2019-04-29T06:02:53.858Z,82.92
2019-04-29T06:05:27.457Z,82.49
2019-04-29T06:08:00.998Z,81.48
2019-04-29T06:10:32.987Z,81.69
2019-04-29T06:13:04.069Z,81.99
2019-04-29T06:15:35.214Z,82.44
2019-04-29T06:18:09.025Z,82.29
2019-04-29T06:20:40.509Z,82.67
2019-04-29T06:23:13.369Z,81.86
2019-04-29T06:25:44.517Z,80.23
2019-04-29T06:28:21.622Z,79.94
2019-04-29T06:30:51.958Z,79.01
2019-04-29T06:33:24.197Z,78.32
2019-04-29T06:35:57.136Z,77.96
2019-04-29T06:38:28.340Z,77.75
2019-04-29T06:40:59.585Z,78.36
2019-04-29T06:43:31.036Z,77.45
2019-04-29T06:46:04.571Z,77.64
2019-04-29T06:48:35.700Z,77.27
2019-04-29T06:51:06.764Z,75.79
2019-04-29T06:53:37.813Z,77.21
2019-04-29T06:56:10.168Z,77.58
2019-04-29T06:58:42.831Z,78.15
2019-04-29T07:01:14.465Z,77.38
2019-04-29T07:03:47.524Z,77.33
2019-04-29T07:06:18.729Z,77.17
2019-04-29T07:08:49.778Z,75.82
2019-04-29T07:11:21.036Z,76.23
2019-04-29T07:13:53.529Z,76.71
2019-04-29T07:16:26.854Z,76.99
2019-04-29T07:18:57.981Z,76.26
2019-04-29T07:21:30.953Z,77.27
2019-04-29T07:24:03.824Z,77.65
2019-04-29T07:26:36.099Z,77.15
2019-04-29T07:29:08.368Z,78.00
2019-04-29T07:31:40.439Z,77.93
2019-04-29T07:34:11.903Z,77.61
2019-04-29T07:36:44.473Z,78.74
2019-04-29T07:39:15.598Z,80.48
2019-04-29T07:41:49.498Z,81.63
2019-04-29T07:44:20.002Z,81.23
2019-04-29T07:47:01.843Z,82.32
2019-04-29T07:49:30.287Z,83.22
2019-04-29T07:52:02.932Z,83.16
2019-04-29T07:54:35.091Z,83.16
2019-04-29T07:57:06.550Z,83.46
2019-04-29T07:59:39.672Z,83.78
2019-04-29T08:02:12.631Z,83.79
2019-04-29T08:04:46.233Z,85.52
2019-04-29T08:07:18.846Z,85.44
2019-04-29T08:09:50.324Z,85.10
2019-04-29T08:12:23.730Z,86.09
2019-04-29T08:17:37.418Z,86.16
2019-04-29T08:20:09.299Z,86.32
2019-04-29T08:22:40.442Z,87.13
2019-04-29T08:25:11.850Z,86.57
2019-04-29T08:27:43.810Z,86.53
2019-04-29T08:30:18.104Z,85.78
2019-04-29T08:32:48.705Z,86.50
2019-04-29T08:35:20.844Z,86.14
2019-04-29T08:37:53.168Z,85.83
2019-04-29T08:40:24.496Z,85.50
2019-04-29T08:43:03.424Z,84.48
2019-04-29T08:45:42.559Z,85.49
2019-04-29T08:48:15.643Z,86.89
2019-04-29T08:50:48.533Z,87.00
2019-04-29T08:53:20.292Z,86.68
2019-04-29T08:55:51.333Z,85.90
2019-04-29T08:58:24.535Z,86.97
2019-04-29T09:00:57.519Z,87.99
2019-04-29T09:03:40.092Z,87.28
2019-04-29T09:06:06.123Z,88.49
2019-04-29T09:08:37.504Z,88.41
2019-04-29T09:11:12.992Z,89.12
2019-04-29T09:13:41.548Z,88.27
2019-04-29T09:16:12.788Z,88.97
2019-04-29T09:18:46.094Z,89.31
2019-04-29T09:21:20.405Z,89.76
2019-04-29T09:23:52.919Z,89.96
2019-04-29T09:26:49.042Z,89.30
2019-04-29T09:29:37.327Z,90.39
2019-04-29T09:32:09.894Z,89.59
2019-04-29T09:34:42.361Z,90.05
2019-04-29T09:37:14.813Z,90.27
2019-04-29T09:39:48.389Z,90.58
2019-04-29T09:42:36.513Z,90.77
2019-04-29T09:45:24.611Z,90.93
2019-04-29T09:47:57.643Z,91.41
2019-04-29T09:50:28.809Z,91.97
2019-04-29T09:53:03.929Z,91.32
2019-04-29T09:55:35.615Z,91.03
2019-04-29T09:58:08.067Z,90.83
2019-04-29T10:00:58.519Z,91.05
2019-04-29T10:03:55.326Z,91.42
2019-04-29T10:06:30.831Z,90.97
2019-04-29T10:09:02.403Z,92.81
2019-04-29T10:11:33.854Z,92.59
2019-04-29T10:14:06.423Z,91.72
2019-04-29T10:16:56.403Z,91.81
2019-04-29T10:19:40.835Z,91.56
2019-04-29T10:22:12.020Z,92.77
2019-04-29T10:24:43.612Z,92.90
2019-04-29T10:27:14.908Z,93.51
2019-04-29T10:29:50.815Z,93.87
2019-04-29T10:32:22.541Z,94.79
2019-04-29T10:34:53.973Z,94.77
2019-04-29T10:37:31.379Z,94.43
2019-04-29T10:40:20.011Z,95.01
2019-04-29T10:43:18.718Z,94.09
2019-04-29T10:46:09.804Z,94.13
2019-04-29T10:48:48.716Z,94.84
2019-04-29T10:51:23.209Z,94.33
2019-04-29T10:53:54.083Z,93.93
2019-04-29T10:56:25.756Z,93.26
2019-04-29T10:58:57.336Z,94.07
2019-04-29T11:02:35.037Z,94.88
2019-04-29T11:05:35.888Z,93.80
2019-04-29T11:08:28.451Z,93.12
2019-04-29T11:11:02.301Z,93.62
2019-04-29T11:13:32.662Z,94.17
2019-04-29T11:16:03.839Z,94.62
2019-04-29T11:18:36.087Z,94.36
2019-04-29T11:21:08.999Z,94.76
2019-04-29T11:24:02.019Z,94.95
2019-04-29T11:27:12.220Z,95.25
2019-04-29T11:29:44.732Z,95.75
2019-04-29T11:32:35.223Z,95.51
2019-04-29T11:35:30.528Z,96.11
2019-04-29T11:38:04.771Z,95.25
2019-04-29T11:40:43.434Z,95.35
2019-04-29T11:43:10.954Z,95.02
2019-04-29T11:45:43.154Z,94.53
2019-04-29T11:48:15.474Z,94.55
2019-04-29T11:50:55.411Z,94.50
2019-04-29T11:53:27.086Z,94.36
2019-04-29T11:56:00.164Z,95.14
2019-04-29T11:59:00.016Z,94.94
2019-04-29T12:01:51.812Z,95.99
2019-04-29T12:04:37.733Z,96.14
2019-04-29T12:07:09.085Z,96.02
2019-04-29T12:09:40.625Z,95.46
2019-04-29T12:12:15.167Z,95.35
2019-04-29T12:15:03.979Z,96.26
2019-04-29T12:17:45.028Z,96.86
2019-04-29T12:20:23.938Z,95.93
2019-04-29T12:22:55.190Z,95.92
2019-04-29T12:25:27.575Z,96.01
2019-04-29T12:28:01.498Z,95.04
2019-04-29T12:30:37.952Z,95.49
2019-04-29T12:33:15.767Z,95.61
2019-04-29T12:35:58.710Z,95.18
2019-04-29T12:38:51.134Z,95.39
2019-04-29T12:42:00.681Z,95.20
2019-04-29T12:44:49.915Z,94.76
2019-04-29T12:47:27.137Z,94.26
2019-04-29T12:49:59.031Z,95.02
2019-04-29T12:52:32.037Z,95.40
2019-04-29T12:55:19.851Z,95.18
2019-04-29T12:57:38.760Z,94.88
2019-04-29T13:00:12.632Z,94.13
2019-04-29T13:03:01.922Z,94.15
2019-04-29T13:06:02.280Z,94.17
2019-04-29T13:08:36.911Z,93.72
2019-04-29T13:11:09.921Z,94.08
2019-04-29T13:13:41.068Z,94.54
2019-04-29T13:16:34.428Z,95.01
2019-04-29T13:19:20.990Z,95.25
2019-04-29T13:21:53.710Z,95.74
2019-04-29T13:24:25.369Z,94.88
2019-04-29T13:26:57.704Z,94.43
2019-04-29T13:29:32.136Z,95.29
2019-04-29T13:32:05.037Z,95.37
2019-04-29T13:34:40.206Z,95.39
2019-04-29T13:37:18.232Z,95.26
2019-04-29T13:39:48.330Z,95.77
2019-04-29T13:42:19.600Z,94.54
2019-04-29T13:45:06.136Z,94.71
2019-04-29T13:47:35.422Z,95.13
2019-04-29T13:50:38.781Z,95.47
2019-04-29T13:53:00.535Z,95.39
2019-04-29T13:55:47.721Z,94.45
2019-04-29T13:58:05.032Z,93.98
2019-04-29T14:01:02.243Z,94.23
2019-04-29T14:03:42.026Z,94.33
2019-04-29T14:06:18.633Z,95.13
2019-04-29T14:08:49.373Z,94.41
2019-04-29T14:11:21.932Z,94.60
2019-04-29T14:13:53.617Z,94.13
2019-04-29T14:16:25.025Z,93.73
2019-04-29T14:18:57.890Z,94.58
2019-04-29T14:21:31.870Z,93.89
2019-04-29T14:24:03.255Z,94.20
2019-04-29T14:26:37.095Z,93.64
2019-04-29T14:29:08.406Z,93.67
2019-04-29T14:31:40.032Z,92.49
2019-04-29T14:34:20.518Z,91.70
2019-04-29T14:36:57.458Z,90.46
2019-04-29T14:39:36.631Z,90.07
2019-04-29T14:42:04.322Z,89.90
2019-04-29T14:44:53.891Z,90.74
2019-04-29T14:47:44.073Z,90.34
2019-04-29T14:50:20.292Z,90.16
2019-04-29T14:52:49.463Z,90.00
2019-04-29T14:55:25.183Z,90.23
2019-04-29T14:57:55.580Z,89.43
2019-04-29T15:00:41.996Z,89.49
2019-04-29T15:03:13.300Z,88.04
2019-04-29T15:05:46.381Z,89.02
2019-04-29T15:08:17.510Z,89.39
2019-04-29T15:10:52.158Z,89.55
2019-04-29T15:13:25.461Z,88.62
2019-04-29T15:16:14.319Z,88.54
2019-04-29T15:18:55.252Z,87.21
2019-04-29T15:21:45.488Z,87.79
2019-04-29T15:24:17.564Z,87.49
2019-04-29T15:26:50.031Z,88.10
2019-04-29T15:29:21.753Z,88.28
2019-04-29T15:31:54.771Z,87.42
2019-04-29T15:34:26.253Z,87.94
2019-04-29T15:36:57.357Z,87.97
2019-04-29T15:39:28.905Z,87.97
2019-04-29T15:42:01.696Z,87.16
2019-04-29T15:44:35.184Z,87.25
2019-04-29T15:47:07.414Z,86.86
2019-04-29T15:49:38.651Z,87.30
2019-04-29T15:52:09.842Z,87.66
2019-04-29T15:54:45.906Z,87.56
2019-04-29T15:57:17.662Z,87.08
2019-04-29T15:59:53.933Z,86.90
2019-04-29T16:02:21.954Z,85.78
2019-04-29T16:05:04.582Z,85.53
2019-04-29T16:07:55.796Z,85.10
2019-04-29T16:10:57.982Z,85.10
2019-04-29T16:13:30.403Z,85.99
2019-04-29T16:16:03.046Z,85.28
2019-04-29T16:18:34.337Z,85.55
2019-04-29T16:21:05.634Z,85.98
2019-04-29T16:23:40.097Z,85.67
2019-04-29T16:26:11.445Z,85.26
2019-04-29T16:28:42.699Z,85.22
2019-04-29T16:31:15.711Z,85.16
2019-04-29T16:33:54.316Z,86.12
2019-04-29T16:36:19.990Z,85.71
2019-04-29T16:38:51.858Z,86.42
2019-04-29T16:41:41.966Z,87.16
2019-04-29T16:46:47.597Z,86.69
2019-04-29T16:49:19.151Z,86.67
2019-04-29T16:51:53.472Z,88.04
2019-04-29T16:54:28.437Z,88.80
2019-04-29T16:56:58.845Z,88.66
2019-04-29T16:59:31.421Z,88.16
2019-04-29T17:02:02.746Z,87.57
2019-04-29T17:04:34.300Z,88.45
2019-04-29T17:07:13.956Z,87.87
2019-04-29T17:09:51.635Z,88.80
2019-04-29T17:12:29.291Z,89.33
2019-04-29T17:15:05.111Z,88.39
2019-04-29T17:17:38.235Z,89.06
2019-04-29T17:20:10.694Z,89.14
2019-04-29T17:22:43.135Z,88.62
2019-04-29T17:25:17.482Z,89.39
2019-04-29T17:28:11.619Z,89.97
2019-04-29T17:30:57.374Z,90.31
2019-04-29T17:33:49.799Z,90.96
2019-04-29T17:35:17.897Z,86.98
2019-04-29T17:36:23.805Z,90.79
2019-04-29T17:38:53.786Z,90.98
2019-04-29T17:41:32.864Z,91.99
2019-04-29T17:44:22.708Z,92.16
2019-04-29T17:47:22.077Z,92.14
2019-04-29T17:50:02.084Z,92.40
2019-04-29T17:52:35.220Z,92.42
2019-04-29T17:55:17.245Z,92.79
2019-04-29T17:58:02.261Z,93.22
2019-04-29T18:00:56.206Z,94.26
2019-04-29T18:03:57.838Z,94.33
2019-04-29T18:06:33.373Z,94.18
2019-04-29T18:09:29.226Z,94.78
2019-04-29T18:12:05.125Z,94.91
2019-04-29T18:14:41.624Z,95.52
2019-04-29T18:17:11.764Z,95.64
2019-04-29T18:20:00.312Z,95.25
2019-04-29T18:23:06.020Z,95.96
2019-04-29T18:25:56.484Z,96.29
2019-04-29T18:28:29.374Z,95.92
2019-04-29T18:31:01.547Z,96.30
2019-04-29T18:33:36.903Z,96.39
2019-04-29T18:36:19.606Z,96.51
2019-04-29T18:38:42.558Z,96.10
2019-04-29T18:41:24.810Z,96.26
2019-04-29T18:43:50.193Z,96.11
2019-04-29T18:46:22.095Z,96.34
2019-04-29T18:48:55.938Z,96.54
2019-04-29T18:51:28.845Z,96.22
2019-04-29T18:54:01.000Z,95.98
2019-04-29T18:56:35.877Z,95.96
2019-04-29T18:59:06.389Z,96.32
2019-04-29T19:01:44.961Z,96.61
2019-04-29T19:04:26.271Z,96.76
2019-04-29T19:07:02.141Z,97.12
2019-04-29T19:09:35.898Z,97.86
2019-04-29T19:12:10.434Z,97.02
2019-04-29T19:14:49.733Z,97.15
2019-04-29T19:17:21.772Z,97.13
2019-04-29T19:19:55.314Z,97.50
2019-04-29T19:22:28.635Z,97.74
2019-04-29T19:25:08.716Z,97.84
2019-04-29T19:27:40.458Z,98.11
2019-04-29T19:30:21.227Z,97.72
2019-04-29T19:32:53.917Z,97.93
2019-04-29T19:35:25.258Z,98.15
2019-04-29T19:37:56.691Z,98.25
2019-04-29T19:40:30.657Z,98.16
2019-04-29T19:43:02.467Z,98.83
2019-04-29T19:45:36.757Z,99.22
2019-04-29T19:48:09.804Z,99.92
2019-04-29T19:50:49.610Z,100.00
2019-04-29T19:53:25.086Z,100.00
2019-04-29T19:56:04.188Z,100.00
2019-04-29T19:58:31.530Z,100.00
2019-04-29T20:01:13.133Z,100.00
2019-04-29T20:03:43.168Z,100.00
2019-04-29T20:06:28.821Z,100.00
2019-04-29T20:09:01.768Z,100.00
2019-04-29T20:11:38.881Z,100.00
2019-04-29T20:14:19.423Z,100.00
2019-04-29T20:17:12.654Z,100.00
2019-04-29T20:19:50.627Z,100.00
2019-04-29T20:22:20.959Z,100.00
2019-04-29T20:24:52.878Z,100.00
2019-04-29T20:27:30.828Z,100.00
2019-04-29T20:30:02.054Z,100.00
2019-04-29T20:32:37.830Z,100.00
2019-04-29T20:35:11.226Z,100.00
2019-04-29T20:37:43.354Z,100.00
2019-04-29T20:40:16.033Z,100.00
2019-04-29T20:42:49.338Z,100.00
2019-04-29T20:45:27.213Z,100.00
2019-04-29T20:47:55.910Z,100.00
2019-04-29T20:50:29.560Z,99.50
2019-04-29T20:53:18.712Z,98.66
2019-04-29T20:55:50.119Z,97.23
2019-04-29T20:58:31.212Z,95.44
2019-04-29T21:01:03.167Z,93.20
2019-04-29T21:03:32.817Z,90.35
2019-04-29T21:06:06.290Z,89.78
2019-04-29T21:08:37.691Z,88.15
2019-04-29T21:11:20.778Z,86.62
2019-04-29T21:13:58.838Z,85.70
2019-04-29T21:16:35.822Z,85.12
2019-04-29T21:19:09.322Z,83.80
2019-04-29T21:21:42.076Z,82.00
2019-04-29T21:24:18.280Z,82.74
2019-04-29T21:26:46.647Z,82.40
2019-04-29T21:29:19.463Z,83.06
2019-04-29T21:31:58.423Z,83.01
2019-04-29T21:34:29.652Z,82.38
2019-04-29T21:37:20.711Z,81.88
2019-04-29T21:40:14.838Z,80.96
2019-04-29T21:42:56.226Z,80.97
2019-04-29T21:45:27.720Z,82.11
2019-04-29T21:47:58.985Z,81.42
2019-04-29T21:50:34.604Z,82.19
2019-04-29T21:53:03.452Z,82.18
2019-04-29T21:55:35.835Z,81.94
2019-04-29T21:58:06.974Z,81.52
2019-04-29T22:00:41.149Z,81.83
2019-04-29T22:03:15.302Z,82.24
2019-04-29T22:05:49.270Z,82.03
2019-04-29T22:08:24.991Z,82.06
2019-04-29T22:10:58.308Z,82.05
2019-04-29T22:13:30.701Z,82.59
2019-04-29T22:16:01.698Z,81.71
2019-04-29T22:18:33.201Z,81.61
2019-04-29T22:21:09.773Z,81.19
2019-04-29T22:23:39.285Z,81.26
2019-04-29T22:26:18.326Z,80.48
2019-04-29T22:28:47.441Z,80.72
2019-04-29T22:31:20.910Z,81.11
2019-04-29T22:33:52.365Z,81.38
2019-04-29T22:36:27.024Z,81.07
2019-04-29T22:38:59.377Z,81.60
2019-04-29T22:41:48.773Z,81.64
2019-04-29T22:44:21.876Z,81.95
2019-04-29T22:46:53.321Z,82.32
2019-04-29T22:49:29.148Z,82.66
2019-04-29T22:52:00.377Z,82.24
2019-04-29T22:54:33.163Z,81.62
2019-04-29T22:57:05.708Z,81.58
2019-04-29T22:59:36.895Z,81.08
2019-04-29T23:02:08.387Z,82.15
2019-04-29T23:04:39.392Z,81.61
2019-04-29T23:07:11.769Z,81.72
2019-04-29T23:09:46.267Z,82.12
2019-04-29T23:12:18.547Z,82.21
2019-04-29T23:14:51.346Z,82.81
2019-04-29T23:17:22.805Z,83.15
2019-04-29T23:19:59.949Z,83.87
2019-04-29T23:22:41.287Z,84.25
2019-04-29T23:25:16.824Z,84.47
2019-04-29T23:27:52.560Z,85.00
2019-04-29T23:30:27.938Z,85.71
2019-04-29T23:32:59.331Z,86.34
2019-04-29T23:35:30.821Z,86.70
2019-04-29T23:38:04.282Z,87.29
2019-04-29T23:40:35.049Z,88.44
2019-04-29T23:43:06.292Z,88.79
2019-04-29T23:45:38.174Z,88.84
2019-04-29T23:48:09.321Z,89.77
2019-04-29T23:50:42.271Z,90.07
2019-04-29T23:53:14.375Z,90.34
2019-04-29T23:55:47.189Z,90.52
2019-04-29T23:58:37.371Z,90.53
